Time;durP1;ratioP1;P1;durP2;ratioP2;P2;SDS_P1;SDS_P2;PMS_P1;PMS_P2;Temp;Humidity;BMP_temperature;BMP_pressure;BME280_temperature;BME280_humidity;BME280_pressure;Samples;Min_cycle;Max_cycle;Signal;HPM_P1;HPM_P2
2021/05/12 00:00:09;;;;;;;;;;;;;;;11.01;73.04;95176.39;1789704;80;20151;-61
2021/05/12 00:02:38;;;;;;;;;;;;;;;10.86;72.50;95173.27;1789683;80;20202;-62
2021/05/12 00:05:06;;;;;;;;;;;;;;;10.79;73.60;95175.23;1789838;80;20140;-61
2021/05/12 00:07:33;;;;;;;;;;;;;;;10.78;72.67;95167.73;1789331;80;20155;-61
2021/05/12 00:09:59;;;;;;;;;;;;;;;10.78;72.77;95172.16;1789762;80;20491;-61
2021/05/12 00:12:26;;;;;;;;;;;;;;;10.73;72.55;95164.81;1789921;80;20143;-61
2021/05/12 00:14:52;;;;;;;;;;;;;;;10.64;73.89;95167.25;1789753;80;20167;-61
2021/05/12 00:17:20;;;;;;;;;;;;;;;10.58;73.33;95158.16;1789676;80;20135;-61
2021/05/12 00:19:56;;;;;;;;;;;;;;;10.58;73.71;95152.87;1772121;80;20544;-61
2021/05/12 00:24:58;;;;;;;;;;;;;;;10.51;74.97;95139.46;1789891;80;20143;-61
2021/05/12 00:27:24;;;;;;;;;;;;;;;10.42;74.65;95160.78;1789898;80;20155;-61
2021/05/12 00:29:51;;;;;;;;;;;;;;;10.35;75.15;95163.55;1789584;80;20139;-61
2021/05/12 00:32:17;;;;;;;;;;;;;;;10.34;73.87;95156.56;1789923;80;20175;-61
2021/05/12 00:34:44;;;;;;;;;;;;;;;10.31;74.20;95147.41;1789619;80;20139;-61
2021/05/12 00:37:11;;;;;;;;;;;;;;;10.26;74.09;95155.00;1789903;80;20155;-61
2021/05/12 00:39:37;;;;;;;;;;;;;;;10.28;75.44;95155.83;1789626;80;20154;-61
2021/05/12 00:42:04;;;;;;;;;;;;;;;10.19;76.11;95164.35;1789813;80;20151;-61
2021/05/12 00:44:31;;;;;;;;;;;;;;;10.23;75.15;95158.58;1789660;80;20151;-61
2021/05/12 00:47:01;;;;;;;;;;;;;;;10.31;74.60;95146.55;1789645;80;20151;-61
2021/05/12 00:49:27;;;;;;;;;;;;;;;10.25;76.18;95142.70;1789763;80;20143;-61
2021/05/12 00:51:53;;;;;;;;;;;;;;;10.29;75.41;95135.17;1789631;80;20151;-61
2021/05/12 00:54:19;;;;;;;;;;;;;;;10.27;76.59;95143.53;1789637;80;20436;-61
2021/05/12 00:56:45;;;;;;;;;;;;;;;10.27;76.18;95147.03;1789587;80;20139;-61
2021/05/12 00:59:12;;;;;;;;;;;;;;;10.34;75.89;95139.88;1789770;80;20508;-61
2021/05/12 01:01:38;;;;;;;;;;;;;;;10.38;75.55;95141.09;1789713;80;20148;-61
2021/05/12 01:04:07;;;;;;;;;;;;;;;10.43;74.98;95148.00;1789637;80;20136;-61
2021/05/12 01:06:39;;;;;;;;;;;;;;;10.39;74.69;95148.54;1789902;80;20163;-61
2021/05/12 01:09:07;;;;;;;;;;;;;;;10.36;75.57;95146.84;1789502;80;20143;-61
2021/05/12 01:11:34;;;;;;;;;;;;;;;10.29;75.33;95139.13;1789668;80;20135;-61
2021/05/12 01:14:01;;;;;;;;;;;;;;;10.35;75.47;95146.87;1789709;80;20136;-61
2021/05/12 01:16:27;;;;;;;;;;;;;;;10.28;75.74;95142.22;1759150;80;20175;-61
2021/05/12 01:18:54;;;;;;;;;;;;;;;10.28;75.07;95142.22;1789621;80;20190;-61
2021/05/12 01:21:20;;;;;;;;;;;;;;;10.12;76.50;95140.81;1789769;80;20163;-61
2021/05/12 01:23:48;;;;;;;;;;;;;;;10.12;75.85;95142.12;1789491;80;20127;-61
2021/05/12 01:26:18;;;;;;;;;;;;;;;10.10;75.75;95138.66;1789883;80;20146;-61
2021/05/12 01:28:48;;;;;;;;;;;;;;;10.01;77.46;95137.58;1789823;80;20163;-61
2021/05/12 01:31:21;;;;;;;;;;;;;;;9.99;76.56;95138.92;1789567;80;20127;-61
2021/05/12 01:33:49;;;;;;;;;;;;;;;9.98;75.88;95137.20;1789773;80;20180;-61
2021/05/12 01:36:16;;;;;;;;;;;;;;;10.01;76.23;95136.27;1789745;80;20159;-61
2021/05/12 01:38:44;;;;;;;;;;;;;;;10.05;75.71;95137.91;1789428;80;20175;-61
2021/05/12 01:41:11;;;;;;;;;;;;;;;9.99;77.02;95132.33;1789745;80;20155;-61
2021/05/12 01:43:39;;;;;;;;;;;;;;;9.95;77.07;95134.19;1773167;80;20179;-61
2021/05/12 01:46:05;;;;;;;;;;;;;;;9.91;76.98;95129.88;1791871;80;20472;-61
2021/05/12 01:48:32;;;;;;;;;;;;;;;9.91;76.94;95127.70;1791996;80;20519;-61
2021/05/12 01:50:59;;;;;;;;;;;;;;;9.83;77.76;95128.34;1792054;80;20155;-61
2021/05/12 01:53:26;;;;;;;;;;;;;;;9.76;77.70;95132.88;1791582;80;20144;-61
2021/05/12 01:55:53;;;;;;;;;;;;;;;9.70;77.21;95132.57;1791874;80;20174;-61
2021/05/12 01:58:21;;;;;;;;;;;;;;;9.71;77.32;95126.39;1791957;80;20159;-61
2021/05/12 02:00:50;;;;;;;;;;;;;;;9.70;77.23;95129.05;1791938;80;20186;-61
2021/05/12 02:03:18;;;;;;;;;;;;;;;9.64;76.63;95121.30;1791946;80;20139;-61
2021/05/12 02:05:47;;;;;;;;;;;;;;;9.57;77.58;95121.87;1792041;80;20155;-62
2021/05/12 02:08:17;;;;;;;;;;;;;;;9.50;78.28;95114.58;1791768;80;20175;-61
2021/05/12 02:10:45;;;;;;;;;;;;;;;9.44;77.64;95127.86;1792059;80;20175;-60
2021/05/12 02:13:13;;;;;;;;;;;;;;;9.43;78.30;95118.23;1791787;80;20162;-61
2021/05/12 02:15:41;;;;;;;;;;;;;;;9.49;77.92;95116.77;1792160;80;20152;-61
2021/05/12 02:18:07;;;;;;;;;;;;;;;9.56;78.00;95116.20;1791818;80;20218;-61
2021/05/12 02:20:35;;;;;;;;;;;;;;;9.62;77.10;95112.09;1792009;80;20167;-61
2021/05/12 02:23:05;;;;;;;;;;;;;;;9.63;77.07;95120.43;1792049;80;20230;-61
2021/05/12 02:25:32;;;;;;;;;;;;;;;9.65;77.80;95117.74;1791890;80;20150;-61
2021/05/12 02:27:59;;;;;;;;;;;;;;;9.62;77.22;95109.92;1791841;80;20492;-60
2021/05/12 02:30:25;;;;;;;;;;;;;;;9.60;78.39;95116.56;1791930;80;20171;-61
2021/05/12 02:32:55;;;;;;;;;;;;;;;9.62;78.86;95116.05;1791811;80;20547;-61
2021/05/12 02:35:21;;;;;;;;;;;;;;;9.61;78.38;95112.15;1791934;80;20207;-61
2021/05/12 02:37:47;;;;;;;;;;;;;;;9.64;78.20;95113.39;1792038;80;20178;-61
2021/05/12 02:40:16;;;;;;;;;;;;;;;9.62;78.58;95112.09;1791752;80;20207;-61
2021/05/12 02:42:42;;;;;;;;;;;;;;;9.62;78.10;95109.92;1791636;80;20163;-61
2021/05/12 02:45:10;;;;;;;;;;;;;;;9.65;78.07;95109.84;1790187;80;20151;-61
2021/05/12 02:47:37;;;;;;;;;;;;;;;9.59;78.56;95108.22;1789696;80;20119;-61
2021/05/12 02:50:07;;;;;;;;;;;;;;;9.56;78.78;95109.61;1789521;80;20135;-61
2021/05/12 02:52:33;;;;;;;;;;;;;;;9.56;78.55;95114.02;1789624;80;20591;-61
2021/05/12 02:54:59;;;;;;;;;;;;;;;9.51;78.05;95107.08;1789116;80;20167;-61
2021/05/12 02:57:26;;;;;;;;;;;;;;;9.49;78.92;95104.92;1759327;80;20234;-61
2021/05/12 02:59:53;;;;;;;;;;;;;;;9.49;78.56;95101.43;1789903;80;20179;-61
2021/05/12 03:02:20;;;;;;;;;;;;;;;9.43;78.81;95095.86;1789675;80;20178;-61
2021/05/12 03:04:47;;;;;;;;;;;;;;;9.35;79.14;95104.38;1789932;80;20163;-61
2021/05/12 03:07:13;;;;;;;;;;;;;;;9.31;79.37;95105.33;1789882;80;20151;-61
2021/05/12 03:09:40;;;;;;;;;;;;;;;9.25;79.77;95105.02;1789470;80;20148;-61
2021/05/12 03:12:07;;;;;;;;;;;;;;;9.22;79.18;95101.15;1790120;80;20127;-61
2021/05/12 03:14:33;;;;;;;;;;;;;;;9.18;79.55;95106.50;1789790;80;20159;-61
2021/05/12 03:16:59;;;;;;;;;;;;;;;9.18;78.93;95107.36;1789738;80;20139;-61
2021/05/12 03:19:26;;;;;;;;;;;;;;;9.25;79.10;95110.74;1789827;80;20155;-61
2021/05/12 03:21:55;;;;;;;;;;;;;;;9.28;79.31;95105.41;1789832;80;20483;-61
2021/05/12 03:24:21;;;;;;;;;;;;;;;9.27;79.44;95104.55;1789631;80;20131;-61
2021/05/12 03:26:48;;;;;;;;;;;;;;;9.31;79.74;95109.28;1789913;80;20150;-61
2021/05/12 03:29:14;;;;;;;;;;;;;;;9.29;79.97;95107.98;1789939;80;20163;-61
2021/05/12 03:31:41;;;;;;;;;;;;;;;9.27;80.11;95112.87;1789800;80;20444;-62
2021/05/12 03:34:07;;;;;;;;;;;;;;;9.24;79.82;95103.73;1789769;80;20155;-61
2021/05/12 03:36:34;;;;;;;;;;;;;;;9.24;79.86;95105.91;1789877;80;20187;-60
2021/05/12 03:39:00;;;;;;;;;;;;;;;9.28;79.91;95105.41;1789673;80;20151;-61
2021/05/12 03:41:27;;;;;;;;;;;;;;;9.35;80.62;95099.54;1789800;80;20175;-66
2021/05/12 03:43:53;;;;;;;;;;;;;;;9.39;81.03;95099.44;1788367;80;20163;-65
2021/05/12 03:46:19;;;;;;;;;;;;;;;9.45;80.70;95094.48;1781473;80;20486;-65
2021/05/12 03:48:46;;;;;;;;;;;;;;;9.51;81.05;95087.78;1781495;80;20171;-65
2021/05/12 03:51:12;;;;;;;;;;;;;;;9.61;80.40;95087.98;1781453;80;20560;-65
2021/05/12 03:53:38;;;;;;;;;;;;;;;9.70;80.87;95089.53;1759799;81;20136;-70
2021/05/12 03:56:05;;;;;;;;;;;;;;;9.83;80.06;95086.19;1781349;80;20180;-70
2021/05/12 03:58:31;;;;;;;;;;;;;;;9.87;79.90;95085.19;1781446;80;20476;-70
2021/05/12 04:00:58;;;;;;;;;;;;;;;9.93;79.63;95091.19;1781636;80;20246;-69
2021/05/12 04:03:30;;;;;;;;;;;;;;;9.96;79.60;95090.25;1781496;80;20480;-70
2021/05/12 04:05:55;;;;;;;;;;;;;;;10.03;79.39;95090.52;1780948;80;20151;-70
2021/05/12 04:08:24;;;;;;;;;;;;;;;10.10;79.38;95090.75;1781469;81;20159;-70
2021/05/12 04:10:51;;;;;;;;;;;;;;;10.18;79.37;95086.64;1781433;81;20528;-70
2021/05/12 04:13:19;;;;;;;;;;;;;;;10.26;79.18;95080.71;1781558;80;20152;-70
2021/05/12 04:15:45;;;;;;;;;;;;;;;10.32;79.34;95081.89;1781472;81;20140;-70
2021/05/12 04:18:12;;;;;;;;;;;;;;;10.41;79.00;95078.16;1781651;81;20147;-70
2021/05/12 04:20:38;;;;;;;;;;;;;;;10.49;79.02;95076.64;1781506;80;20219;-70
2021/05/12 04:23:04;;;;;;;;;;;;;;;10.60;78.72;95075.42;1781535;80;20175;-70
2021/05/12 04:25:31;;;;;;;;;;;;;;;10.70;78.49;95073.41;1781335;81;20505;-70
2021/05/12 04:27:57;;;;;;;;;;;;;;;10.78;78.37;95067.45;1781521;81;20139;-70
2021/05/12 04:30:24;;;;;;;;;;;;;;;10.88;78.27;95067.22;1781519;81;20226;-70
2021/05/12 04:32:51;;;;;;;;;;;;;;;11.01;78.21;95064.20;1781365;80;20139;-70
2021/05/12 04:35:19;;;;;;;;;;;;;;;11.19;77.90;95056.66;1781437;81;20211;-70
2021/05/12 04:37:47;;;;;;;;;;;;;;;11.39;77.54;95061.30;1781625;81;20178;-70
2021/05/12 04:40:13;;;;;;;;;;;;;;;11.60;77.18;95059.81;1781127;81;20171;-70
2021/05/12 04:42:40;;;;;;;;;;;;;;;11.72;76.09;95058.11;1781429;80;20485;-70
2021/05/12 04:45:08;;;;;;;;;;;;;;;11.82;75.68;95050.75;1785841;80;20182;-70
2021/05/12 04:47:35;;;;;;;;;;;;;;;11.95;75.40;95050.79;1789777;80;20167;-70
2021/05/12 04:50:02;;;;;;;;;;;;;;;12.10;75.45;95042.81;1789765;80;20151;-70
2021/05/12 04:52:29;;;;;;;;;;;;;;;12.28;75.38;95046.61;1789877;80;20155;-74
2021/05/12 04:54:55;;;;;;;;;;;;;;;12.49;75.07;95050.30;1789622;80;20194;-79
2021/05/12 04:57:22;;;;;;;;;;;;;;;12.67;74.47;95039.52;1789889;80;20139;-71
2021/05/12 04:59:48;;;;;;;;;;;;;;;12.85;74.34;95041.52;1789794;80;20147;-80
2021/05/12 05:02:15;;;;;;;;;;;;;;;13.02;73.79;95042.67;1789682;80;20159;-78
2021/05/12 05:04:42;;;;;;;;;;;;;;;13.12;72.57;95036.97;1789581;80;20495;-67
2021/05/12 05:07:08;;;;;;;;;;;;;;;13.18;71.50;95034.11;1789823;80;20156;-67
2021/05/12 05:09:35;;;;;;;;;;;;;;;13.23;71.53;95033.94;1789692;80;20528;-67
2021/05/12 05:12:02;;;;;;;;;;;;;;;13.33;70.88;95026.52;1790053;80;20183;-69
2021/05/12 05:14:28;;;;;;;;;;;;;;;13.42;68.27;95030.14;1789830;80;20179;-83
2021/05/12 05:16:55;;;;;;;;;;;;;;;13.50;68.02;95030.70;1789777;80;20480;-70
2021/05/12 05:19:21;;;;;;;;;;;;;;;13.58;66.97;95029.97;1789885;80;20131;-77
2021/05/12 05:21:49;;;;;;;;;;;;;;;13.71;66.89;95034.31;1789680;80;20496;-77
2021/05/12 05:24:15;;;;;;;;;;;;;;;13.81;65.86;95027.72;1787517;80;20174;-68
2021/05/12 05:26:42;;;;;;;;;;;;;;;13.91;65.82;95026.00;1758636;81;20159;-75
2021/05/12 05:29:08;;;;;;;;;;;;;;;13.98;64.91;95024.83;1758795;82;20140;-73
2021/05/12 05:31:34;;;;;;;;;;;;;;;14.06;64.35;95028.02;1758512;81;20181;-68
2021/05/12 05:34:19;;;;;;;;;;;;;;;14.14;64.24;95028.59;1758570;82;20233;-67
2021/05/12 05:37:04;;;;;;;;;;;;;;;14.29;63.98;95025.77;1758638;82;20165;-76
2021/05/12 05:39:50;;;;;;;;;;;;;;;14.45;64.08;95021.98;1758621;81;20164;-71
2021/05/12 05:42:34;;;;;;;;;;;;;;;14.59;63.54;95027.61;1768131;80;20157;-75
2021/05/12 05:45:19;;;;;;;;;;;;;;;14.73;63.27;95025.66;1785187;80;20472;-76
2021/05/12 05:48:04;;;;;;;;;;;;;;;14.87;62.93;95028.58;1781438;81;20180;-78
2021/05/12 05:50:49;;;;;;;;;;;;;;;15.00;62.73;95018.73;1781431;81;20128;-78
2021/05/12 05:53:23;;;;;;;;;;;;;;;15.13;62.53;95026.55;1732999;80;20160;-79
2021/05/12 05:56:07;;;;;;;;;;;;;;;15.27;62.18;95020.14;1781446;81;20176;-74
2021/05/12 05:58:52;;;;;;;;;;;;;;;15.35;61.44;95022.44;1781481;81;20461;-69
2021/05/12 06:01:37;;;;;;;;;;;;;;;15.46;61.24;95025.45;1781646;81;20148;-69
2021/05/12 06:04:04;;;;;;;;;;;;;;;15.53;61.14;95022.91;1781382;81;20191;-70
2021/05/12 06:06:48;;;;;;;;;;;;;;;15.58;60.70;95022.69;1781439;81;20160;-70
2021/05/12 06:09:33;;;;;;;;;;;;;;;15.64;60.06;95022.38;1781482;81;20223;-70
2021/05/12 06:12:18;;;;;;;;;;;;;;;15.75;59.38;95021.45;1781425;81;20211;-69
2021/05/12 06:15:04;;;;;;;;;;;;;;;15.83;58.97;95015.77;1781459;81;20504;-69
2021/05/12 06:17:35;;;;;;;;;;;;;;;15.86;58.97;95010.77;1725101;80;20144;-69
2021/05/12 06:20:19;;;;;;;;;;;;;;;15.92;58.88;95012.64;1756588;81;20225;-78
2021/05/12 06:23:05;;;;;;;;;;;;;;;16.05;59.36;95008.94;1750847;82;20158;-74
2021/05/12 06:25:53;;;;;;;;;;;;;;;16.19;59.07;95003.77;1750687;82;20142;-73
2021/05/12 06:28:37;;;;;;;;;;;;;;;16.29;59.50;95004.65;1750797;82;20150;-73
2021/05/12 06:31:22;;;;;;;;;;;;;;;16.33;57.85;94998.21;1750683;82;20157;-70
2021/05/12 06:34:07;;;;;;;;;;;;;;;16.40;58.20;95000.95;1750589;82;20165;-77
2021/05/12 06:36:51;;;;;;;;;;;;;;;16.51;58.21;94989.78;1750841;82;20145;-71
2021/05/12 06:39:36;;;;;;;;;;;;;;;16.60;57.50;94983.48;1750459;82;20162;-70
2021/05/12 06:42:03;;;;;;;;;;;;;;;16.70;57.36;94984.34;1750660;82;20506;-81
2021/05/12 06:44:29;;;;;;;;;;;;;;;16.75;57.98;94980.49;1751236;82;20162;-75
2021/05/12 06:46:56;;;;;;;;;;;;;;;16.84;57.28;94977.39;1758695;81;20221;-77
2021/05/12 06:49:22;;;;;;;;;;;;;;;16.96;57.08;94973.66;1758646;81;20138;-78
2021/05/12 06:51:51;;;;;;;;;;;;;;;17.06;56.71;94973.59;1758365;81;20157;-73
2021/05/12 06:54:17;;;;;;;;;;;;;;;17.14;56.14;94971.36;1758685;82;20213;-71
2021/05/12 06:56:43;;;;;;;;;;;;;;;17.29;55.15;94974.52;1758389;81;20180;-74
2021/05/12 06:59:09;;;;;;;;;;;;;;;17.36;56.72;94971.50;1758762;81;20130;-76
2021/05/12 07:01:36;;;;;;;;;;;;;;;17.37;55.16;94966.09;1758631;82;20200;-79
2021/05/12 07:04:02;;;;;;;;;;;;;;;17.41;55.68;94963.66;1758620;81;20161;-72
2021/05/12 07:06:29;;;;;;;;;;;;;;;17.49;55.37;94953.42;1758718;82;20181;-71
2021/05/12 07:08:55;;;;;;;;;;;;;;;17.64;56.08;94957.04;1758666;82;20209;-72
2021/05/12 07:11:23;;;;;;;;;;;;;;;17.81;55.53;94955.23;1758534;81;20181;-71
2021/05/12 07:13:52;;;;;;;;;;;;;;;17.94;55.72;94950.91;1758599;81;20556;-71
2021/05/12 07:16:19;;;;;;;;;;;;;;;18.08;55.44;94946.97;1756126;80;20166;-69
2021/05/12 07:18:46;;;;;;;;;;;;;;;18.22;54.87;94942.17;1755046;80;20129;-73
2021/05/12 07:21:12;;;;;;;;;;;;;;;18.36;54.92;94942.67;1758683;82;20137;-76
2021/05/12 07:23:43;;;;;;;;;;;;;;;18.50;54.07;94937.86;1758688;82;20158;-80
2021/05/12 07:26:07;;;;;;;;;;;;;;;18.58;53.59;94932.42;1758186;82;20249;-69
2021/05/12 07:28:33;;;;;;;;;;;;;;;18.69;53.21;94929.57;1758667;82;20162;-75
2021/05/12 07:31:00;;;;;;;;;;;;;;;18.74;52.60;94931.00;1758769;82;20150;-74
2021/05/12 07:33:26;;;;;;;;;;;;;;;18.93;53.83;94934.78;1758665;81;20138;-72
2021/05/12 07:35:52;;;;;;;;;;;;;;;19.03;52.90;94932.41;1758506;82;20181;-72
2021/05/12 07:38:18;;;;;;;;;;;;;;;19.17;52.88;94924.35;1758670;82;20238;-78
2021/05/12 07:40:44;;;;;;;;;;;;;;;19.26;51.69;94922.93;1758637;82;20522;-76
2021/05/12 07:43:12;;;;;;;;;;;;;;;19.29;51.15;94920.54;1758696;82;20145;-75
2021/05/12 07:45:40;;;;;;;;;;;;;;;19.30;50.21;94923.09;1758585;82;20488;-78
2021/05/12 07:48:08;;;;;;;;;;;;;;;19.36;50.92;94915.19;1758655;82;20146;-71
2021/05/12 07:50:36;;;;;;;;;;;;;;;19.38;49.26;94919.48;1758790;82;20169;-69
2021/05/12 07:53:04;;;;;;;;;;;;;;;19.46;51.17;94915.83;1758919;82;20292;-71
2021/05/12 07:55:30;;;;;;;;;;;;;;;19.63;51.49;94912.52;1758954;82;20157;-77
2021/05/12 07:57:57;;;;;;;;;;;;;;;19.80;50.34;94904.77;1758846;82;20145;-70
2021/05/12 08:00:23;;;;;;;;;;;;;;;19.86;49.33;94899.88;1758863;82;20177;-72
2021/05/12 08:02:50;;;;;;;;;;;;;;;20.02;50.34;94896.18;1758653;82;20153;-75
2021/05/12 08:05:16;;;;;;;;;;;;;;;20.18;49.69;94897.34;1758715;82;20479;-74
2021/05/12 08:07:43;;;;;;;;;;;;;;;20.27;48.45;94894.05;1758937;80;20233;-72
2021/05/12 08:10:10;;;;;;;;;;;;;;;20.44;49.79;94884.87;1758611;82;20488;-72
2021/05/12 08:12:36;;;;;;;;;;;;;;;20.39;47.40;94877.63;1758601;82;20162;-78
2021/05/12 08:15:04;;;;;;;;;;;;;;;20.46;47.83;94871.73;1758785;82;20182;-77
2021/05/12 08:17:30;;;;;;;;;;;;;;;20.47;47.30;94868.57;1758805;82;20149;-68
2021/05/12 08:19:59;;;;;;;;;;;;;;;20.53;47.29;94871.66;1778804;80;20163;-69
2021/05/12 08:22:25;;;;;;;;;;;;;;;20.67;47.46;94866.73;1789565;80;20495;-69
2021/05/12 08:24:51;;;;;;;;;;;;;;;20.72;47.55;94863.25;1789807;80;20143;-68
2021/05/12 08:27:18;;;;;;;;;;;;;;;20.82;46.84;94854.56;1789780;80;20148;-69
2021/05/12 08:29:44;;;;;;;;;;;;;;;20.98;47.37;94848.96;1789885;80;20163;-72
2021/05/12 08:32:12;;;;;;;;;;;;;;;21.10;45.55;94848.94;1759180;80;20504;-66
2021/05/12 08:34:38;;;;;;;;;;;;;;;21.22;46.20;94849.00;1789932;80;20143;-72
2021/05/12 08:37:05;;;;;;;;;;;;;;;21.33;46.81;94843.23;1789807;80;20159;-69
2021/05/12 08:39:31;;;;;;;;;;;;;;;21.54;47.36;94839.48;1789703;80;20139;-74
2021/05/12 08:41:59;;;;;;;;;;;;;;;21.70;47.08;94830.33;1789785;80;20143;-74
2021/05/12 08:44:25;;;;;;;;;;;;;;;21.83;43.98;94829.77;1789815;80;20500;-70
2021/05/12 08:46:52;;;;;;;;;;;;;;;21.99;46.08;94820.91;1782780;80;20148;-72
2021/05/12 08:49:19;;;;;;;;;;;;;;;22.08;44.45;94819.86;1781524;80;20132;-76
2021/05/12 08:51:46;;;;;;;;;;;;;;;22.12;44.56;94816.80;1781430;81;20536;-72
2021/05/12 08:54:13;;;;;;;;;;;;;;;22.30;44.53;94822.65;1781478;80;20174;-72
2021/05/12 08:56:40;;;;;;;;;;;;;;;22.50;45.35;94816.19;1781166;80;20165;-74
2021/05/12 08:59:07;;;;;;;;;;;;;;;22.77;46.09;94818.55;1781605;81;20164;-74
2021/05/12 09:01:34;;;;;;;;;;;;;;;22.94;42.46;94820.76;1781567;80;20167;-73
2021/05/12 09:04:02;;;;;;;;;;;;;;;23.11;43.15;94823.48;1781575;81;20163;-73
2021/05/12 09:06:28;;;;;;;;;;;;;;;23.19;41.46;94822.87;1781545;80;20183;-73
2021/05/12 09:08:57;;;;;;;;;;;;;;;23.19;39.63;94813.45;1781572;81;20243;-73
2021/05/12 09:11:23;;;;;;;;;;;;;;;23.13;38.62;94810.73;1781479;80;20152;-73
2021/05/12 09:13:49;;;;;;;;;;;;;;;23.12;40.37;94811.73;1781574;80;20219;-73
2021/05/12 09:16:29;;;;;;;;;;;;;;;23.19;40.28;94806.72;1781544;81;20472;-73
2021/05/12 09:19:05;;;;;;;;;;;;;;;23.27;38.16;94791.64;1774589;80;20130;-73
2021/05/12 09:21:45;;;;;;;;;;;;;;;23.46;40.25;94791.47;1714618;83;20157;-73
2021/05/12 09:24:23;;;;;;;;;;;;;;;23.69;41.36;94791.80;1712583;84;20167;-73
2021/05/12 09:26:51;;;;;;;;;;;;;;;23.90;39.76;94786.47;1688458;84;20138;-73
2021/05/12 09:29:32;;;;;;;;;;;;;;;23.91;39.91;94787.31;1714762;84;20150;-73
2021/05/12 09:32:16;;;;;;;;;;;;;;;24.03;41.06;94778.20;1712218;84;20151;-73
2021/05/12 09:34:51;;;;;;;;;;;;;;;24.29;38.41;94775.11;1689536;85;20309;-73
2021/05/12 09:37:32;;;;;;;;;;;;;;;24.50;36.54;94770.61;1714814;84;20503;-73
2021/05/12 09:40:02;;;;;;;;;;;;;;;24.63;37.16;94769.05;1712751;84;20182;-73
2021/05/12 09:42:28;;;;;;;;;;;;;;;24.72;36.59;94766.91;1688397;85;20139;-73
2021/05/12 09:45:15;;;;;;;;;;;;;;;24.73;35.89;94762.36;1714752;83;20475;-73
2021/05/12 09:47:46;;;;;;;;;;;;;;;24.89;36.76;94762.70;1712707;84;20241;-73
2021/05/12 09:50:16;;;;;;;;;;;;;;;25.04;37.71;94765.37;1689352;85;20502;-73
2021/05/12 09:52:44;;;;;;;;;;;;;;;25.10;34.84;94764.47;1714846;84;20150;-74
2021/05/12 09:55:13;;;;;;;;;;;;;;;25.03;33.57;94759.64;1689510;85;20230;-74
2021/05/12 09:57:59;;;;;;;;;;;;;;;25.10;34.16;94754.55;1714733;84;20169;-73
2021/05/12 10:00:30;;;;;;;;;;;;;;;25.12;35.27;94749.84;1712600;84;20130;-73
2021/05/12 10:02:57;;;;;;;;;;;;;;;25.22;32.87;94749.91;1712537;84;20163;-74
2021/05/12 10:05:24;;;;;;;;;;;;;;;25.37;33.13;94751.22;1689519;85;20166;-73
2021/05/12 10:07:53;;;;;;;;;;;;;;;25.53;33.81;94752.53;1693193;84;20507;-74
2021/05/12 10:10:41;;;;;;;;;;;;;;;25.74;33.65;94743.81;1689487;85;20147;-73
2021/05/12 10:13:08;;;;;;;;;;;;;;;25.94;32.29;94742.00;1714857;84;20154;-74
2021/05/12 10:15:34;;;;;;;;;;;;;;;25.98;31.54;94746.61;1722417;83;20210;-73
2021/05/12 10:18:01;;;;;;;;;;;;;;;26.11;33.09;94743.98;1689502;85;20226;-73
2021/05/12 10:20:28;;;;;;;;;;;;;;;26.24;30.50;94745.03;1740406;82;20491;-74
2021/05/12 10:22:56;;;;;;;;;;;;;;;26.34;30.64;94733.70;1707066;84;20152;-73
2021/05/12 10:25:24;;;;;;;;;;;;;;;26.53;30.50;94736.03;1714830;84;20185;-73
2021/05/12 10:27:50;;;;;;;;;;;;;;;26.74;31.21;94738.55;1737042;83;20206;-73
2021/05/12 10:30:17;;;;;;;;;;;;;;;26.95;32.22;94731.03;1694671;84;20149;-73
2021/05/12 10:32:51;;;;;;;;;;;;;;;27.09;30.27;94732.89;1749789;82;20138;-74
2021/05/12 10:35:16;;;;;;;;;;;;;;;27.35;31.25;94726.31;1694823;84;20164;-73
2021/05/12 10:37:46;;;;;;;;;;;;;;;27.51;27.99;94721.56;1723620;83;20465;-73
2021/05/12 10:40:19;;;;;;;;;;;;;;;27.65;29.95;94721.55;1723480;83;20144;-73
2021/05/12 10:45:37;;;;;;;;;;;;;;;27.81;28.38;94710.38;1723689;83;20152;-74
2021/05/12 10:48:03;;;;;;;;;;;;;;;28.01;25.48;94708.86;1723646;83;20148;-74
2021/05/12 10:50:46;;;;;;;;;;;;;;;28.23;27.01;94704.81;1723741;83;20184;-74
2021/05/12 10:53:22;;;;;;;;;;;;;;;28.56;28.12;94705.91;1722058;83;20140;-74
2021/05/12 10:56:00;;;;;;;;;;;;;;;27.76;25.88;94706.41;1722266;83;20167;-74
2021/05/12 10:58:33;;;;;;;;;;;;;;;27.74;28.32;94702.48;1723455;83;20152;-74
2021/05/12 11:01:08;;;;;;;;;;;;;;;27.62;28.75;94703.23;1723515;83;20128;-74
2021/05/12 11:03:50;;;;;;;;;;;;;;;27.74;28.49;94706.55;1723490;83;20152;-73
2021/05/12 11:06:21;;;;;;;;;;;;;;;27.56;27.49;94706.55;1721198;83;20159;-74
2021/05/12 11:09:11;;;;;;;;;;;;;;;27.36;27.56;94706.33;1723646;83;20147;-74
2021/05/12 11:11:47;;;;;;;;;;;;;;;26.92;27.13;94706.98;1723365;83;20153;-74
2021/05/12 11:14:28;;;;;;;;;;;;;;;26.64;28.90;94714.73;1723406;83;20167;-74
2021/05/12 11:17:06;;;;;;;;;;;;;;;26.39;29.51;94710.28;1723558;83;20176;-74
2021/05/12 11:19:39;;;;;;;;;;;;;;;26.27;28.16;94708.73;1709847;83;20171;-74
2021/05/12 11:22:32;;;;;;;;;;;;;;;26.31;28.44;94700.20;1694618;85;20162;-73
2021/05/12 11:25:07;;;;;;;;;;;;;;;26.19;30.79;94709.97;1688495;85;20237;-74
2021/05/12 11:27:53;;;;;;;;;;;;;;;26.05;30.19;94705.85;1694415;85;20170;-74
2021/05/12 11:32:38;;;;;;;;;;;;;;;25.60;29.38;94699.17;1694996;85;20242;-74
2021/05/12 11:35:11;;;;;;;;;;;;;;;25.45;30.40;94699.21;1694700;85;20174;-74
2021/05/12 11:37:44;;;;;;;;;;;;;;;25.45;31.28;94696.04;1694853;85;20170;-74
2021/05/12 11:40:07;;;;;;;;;;;;;;;25.54;32.03;94694.83;1693919;84;20187;-73
2021/05/12 11:42:35;;;;;;;;;;;;;;;25.65;32.49;94692.85;1694758;85;20178;-73
2021/05/12 11:45:07;;;;;;;;;;;;;;;25.77;31.30;94690.84;1694715;85;20174;-74
2021/05/12 11:47:38;;;;;;;;;;;;;;;25.96;30.50;94686.47;1687193;84;20496;-74
2021/05/12 11:50:22;;;;;;;;;;;;;;;26.53;30.41;94687.33;1684868;85;20175;-73
2021/05/12 11:52:49;;;;;;;;;;;;;;;26.77;28.59;94677.35;1685019;85;20180;-73
2021/05/12 11:55:17;;;;;;;;;;;;;;;26.64;28.59;94679.55;1684951;85;20155;-74
2021/05/12 11:57:49;;;;;;;;;;;;;;;26.72;28.99;94672.89;1684925;85;20243;-73
2021/05/12 12:00:17;;;;;;;;;;;;;;;26.85;28.53;94668.48;1684896;85;20139;-73
2021/05/12 12:03:01;;;;;;;;;;;;;;;26.85;28.26;94663.07;1684930;85;20174;-73
2021/05/12 12:05:35;;;;;;;;;;;;;;;26.65;27.71;94667.21;1684997;85;20523;-73
2021/05/12 12:08:16;;;;;;;;;;;;;;;26.42;28.21;94659.94;1683502;85;20564;-73
2021/05/12 12:10:43;;;;;;;;;;;;;;;26.63;29.01;94648.91;1684867;85;20226;-74
2021/05/12 12:13:12;;;;;;;;;;;;;;;27.51;28.97;94645.19;1684773;85;20167;-74
2021/05/12 12:15:43;;;;;;;;;;;;;;;27.58;25.94;94642.22;1684805;85;20167;-74
2021/05/12 12:18:09;;;;;;;;;;;;;;;27.53;24.92;94639.12;1684977;85;20167;-74
2021/05/12 12:20:36;;;;;;;;;;;;;;;27.44;24.82;94644.10;1704733;84;20502;-74
2021/05/12 12:23:04;;;;;;;;;;;;;;;27.39;26.56;94641.88;1706537;84;20215;-74
2021/05/12 12:25:44;;;;;;;;;;;;;;;27.29;28.24;94642.94;1706591;84;20146;-74
2021/05/12 12:28:02;;;;;;;;;;;;;;;27.16;27.19;94641.92;1704641;84;20483;-73
2021/05/12 12:30:28;;;;;;;;;;;;;;;27.57;27.37;94636.46;1706617;84;20173;-74
2021/05/12 12:32:54;;;;;;;;;;;;;;;28.09;25.62;94634.86;1706527;84;20146;-74
2021/05/12 12:35:21;;;;;;;;;;;;;;;28.46;27.05;94625.13;1706513;84;20535;-74
2021/05/12 12:37:47;;;;;;;;;;;;;;;29.07;25.35;94621.33;1706591;84;20193;-74
2021/05/12 12:40:14;;;;;;;;;;;;;;;28.87;26.00;94615.80;1706499;84;20178;-74
2021/05/12 12:42:51;;;;;;;;;;;;;;;28.81;24.76;94613.24;1706423;84;20499;-74
2021/05/12 12:45:31;;;;;;;;;;;;;;;29.42;25.95;94620.73;1706414;84;20153;-74
2021/05/12 12:48:00;;;;;;;;;;;;;;;30.11;23.71;94611.75;1732978;82;20147;-74
2021/05/12 12:50:28;;;;;;;;;;;;;;;29.90;24.05;94606.85;1740478;82;20163;-74
2021/05/12 12:53:00;;;;;;;;;;;;;;;29.69;23.48;94609.25;1713242;82;20155;-74
2021/05/12 12:55:30;;;;;;;;;;;;;;;29.46;23.88;94608.52;1740511;82;20167;-74
2021/05/12 12:58:03;;;;;;;;;;;;;;;29.26;23.41;94598.98;1740408;82;20131;-74
2021/05/12 13:00:43;;;;;;;;;;;;;;;28.98;22.59;94595.63;1740544;82;20147;-74
2021/05/12 13:03:20;;;;;;;;;;;;;;;28.65;23.90;94594.16;1740357;82;20504;-74
2021/05/12 13:05:58;;;;;;;;;;;;;;;28.57;24.07;94586.83;1740366;82;20575;-74
2021/05/12 13:08:39;;;;;;;;;;;;;;;28.55;22.52;94583.46;1740515;82;20527;-74